Time;durP1;ratioP1;P1;durP2;ratioP2;P2;SDS_P1;SDS_P2;PMS_P1;PMS_P2;Temp;Humidity;BMP_temperature;BMP_pressure;BME280_temperature;BME280_humidity;BME280_pressure;Samples;Min_cycle;Max_cycle;Signal;HPM_P1;HPM_P2
2022/11/26 00:00:38;;;;;;;19.63;5.18;;;5.90;99.90;;;;;;5111533;27;20045;-80
2022/11/26 00:03:04;;;;;;;23.83;5.13;;;6.30;99.90;;;;;;5113730;27;20062;-80
2022/11/26 00:05:31;;;;;;;21.60;3.97;;;6.80;99.90;;;;;;5128637;27;20592;-80
2022/11/26 00:07:58;;;;;;;13.32;3.75;;;5.90;99.90;;;;;;5112759;27;20058;-80
2022/11/26 00:10:27;;;;;;;27.85;4.80;;;5.80;99.90;;;;;;5128923;27;20122;-79
2022/11/26 00:12:52;;;;;;;16.48;3.78;;;5.80;99.90;;;;;;5110747;27;20477;-80
2022/11/26 00:15:18;;;;;;;28.13;5.18;;;6.80;99.90;;;;;;5078866;27;20126;-80
2022/11/26 00:17:44;;;;;;;23.77;6.03;;;5.80;99.90;;;;;;5128516;27;20074;-80
2022/11/26 00:20:09;;;;;;;19.95;4.20;;;5.80;99.90;;;;;;5129921;27;20043;-80
2022/11/26 00:22:52;;;;;;;27.65;4.57;;;5.80;99.90;;;;;;5128469;27;20050;-80
2022/11/26 00:25:21;;;;;;;22.70;4.43;;;5.80;99.90;;;;;;5128156;27;20057;-80
2022/11/26 00:27:49;;;;;;;22.00;4.07;;;5.80;99.90;;;;;;5111572;27;20127;-80
2022/11/26 00:30:20;;;;;;;24.17;5.90;;;6.40;99.90;;;;;;5110833;27;20038;-80
2022/11/26 00:32:46;;;;;;;31.40;4.93;;;5.80;99.90;;;;;;5112682;27;20034;-80
2022/11/26 00:35:12;;;;;;;18.92;3.88;;;5.80;99.90;;;;;;5110618;27;20568;-78
2022/11/26 00:37:51;;;;;;;19.55;4.03;;;5.80;99.90;;;;;;5129645;27;20497;-79
2022/11/26 00:40:22;;;;;;;17.70;3.75;;;6.40;99.90;;;;;;5128577;27;20094;-79
2022/11/26 00:42:49;;;;;;;17.30;4.13;;;5.70;99.90;;;;;;5127636;27;20046;-79
2022/11/26 00:45:27;;;;;;;25.40;5.15;;;5.80;99.90;;;;;;5112011;27;20038;-79
2022/11/26 00:47:56;;;;;;;26.55;5.13;;;5.80;99.90;;;;;;5127204;27;20078;-79
2022/11/26 00:50:25;;;;;;;18.73;4.85;;;5.70;99.90;;;;;;5112666;27;20366;-79
2022/11/26 00:52:53;;;;;;;22.23;4.18;;;6.20;99.90;;;;;;5110871;27;20042;-79
2022/11/26 00:55:38;;;;;;;16.48;4.63;;;5.70;99.90;;;;;;5111093;27;20121;-79
2022/11/26 00:58:05;;;;;;;17.90;4.00;;;5.70;99.90;;;;;;5129012;27;20394;-79
2022/11/26 01:00:33;;;;;;;24.27;5.22;;;5.10;99.90;;;;;;5126985;27;20095;-79
2022/11/26 01:02:59;;;;;;;24.92;5.15;;;5.70;99.90;;;;;;5129028;27;20564;-79
2022/11/26 01:05:32;;;;;;;23.50;4.78;;;5.70;99.90;;;;;;5126832;27;20525;-79
2022/11/26 01:08:35;;;;;;;20.10;4.22;;;5.70;99.90;;;;;;5129094;27;20082;-80
2022/11/26 01:11:03;;;;;;;23.35;5.68;;;5.70;99.90;;;;;;5106786;27;20050;-80
2022/11/26 01:13:30;;;;;;;22.63;5.07;;;5.70;99.90;;;;;;5127483;27;20410;-80
2022/11/26 01:15:57;;;;;;;19.38;4.47;;;5.60;99.90;;;;;;5128862;27;20553;-80
2022/11/26 01:18:23;;;;;;;23.83;5.72;;;5.60;99.90;;;;;;5126965;27;20077;-80
2022/11/26 01:20:50;;;;;;;21.30;5.53;;;5.60;99.90;;;;;;5128301;27;20082;-80
2022/11/26 01:23:17;;;;;;;17.52;4.13;;;5.60;99.90;;;;;;5127620;27;20049;-80
2022/11/26 01:25:45;;;;;;;22.20;4.43;;;6.60;99.90;;;;;;5109821;27;20043;-80
2022/11/26 01:28:14;;;;;;;15.10;3.97;;;5.70;99.90;;;;;;5110546;27;20051;-80
2022/11/26 01:30:40;;;;;;;18.52;4.35;;;5.80;99.90;;;;;;5109677;27;20043;-80
2022/11/26 01:33:06;;;;;;;23.73;5.07;;;5.60;99.90;;;;;;5128349;27;20465;-80
2022/11/26 01:35:32;;;;;;;21.42;3.85;;;5.60;99.90;;;;;;5126621;27;20042;-80
2022/11/26 01:37:58;;;;;;;17.67;4.60;;;5.60;99.90;;;;;;5113556;27;20064;-80
2022/11/26 01:40:53;;;;;;;25.67;4.50;;;5.50;99.90;;;;;;5132040;27;20043;-80
2022/11/26 01:43:36;;;;;;;17.95;4.90;;;5.50;99.90;;;;;;5130843;27;20047;-80
2022/11/26 01:46:01;;;;;;;23.50;4.85;;;5.50;99.90;;;;;;5132238;27;20050;-80
2022/11/26 01:48:30;;;;;;;22.05;4.25;;;5.50;99.90;;;;;;5114112;27;20047;-81
2022/11/26 01:51:10;;;;;;;19.83;4.28;;;5.50;99.90;;;;;;5131960;27;20478;-80
2022/11/26 01:54:01;;;;;;;17.40;4.28;;;5.50;99.90;;;;;;5132259;27;20046;-80
2022/11/26 01:56:36;;;;;;;27.92;4.85;;;5.50;99.90;;;;;;5130767;27;20051;-80
2022/11/26 01:59:16;;;;;;;25.83;5.18;;;5.50;99.90;;;;;;5115242;27;20524;-80
2022/11/26 02:01:42;;;;;;;22.40;4.80;;;5.50;99.90;;;;;;5114236;27;20117;-80
2022/11/26 02:04:32;;;;;;;29.08;5.15;;;5.50;99.90;;;;;;5114252;27;20575;-80
2022/11/26 02:06:58;;;;;;;20.25;4.35;;;5.50;99.90;;;;;;5114625;27;20088;-80
2022/11/26 02:09:26;;;;;;;17.75;4.50;;;5.50;99.90;;;;;;5113031;27;20099;-80
2022/11/26 02:11:53;;;;;;;20.30;5.10;;;5.50;99.90;;;;;;5114783;27;20085;-80
2022/11/26 02:14:23;;;;;;;22.67;5.45;;;5.50;99.90;;;;;;5113221;27;20047;-80
2022/11/26 02:17:13;;;;;;;34.33;5.57;;;5.50;99.90;;;;;;5114240;27;20047;-80
2022/11/26 02:20:03;;;;;;;27.63;5.18;;;5.50;99.90;;;;;;5131096;27;20043;-80
2022/11/26 02:22:41;;;;;;;24.92;5.68;;;5.50;99.90;;;;;;5112914;27;20039;-80
2022/11/26 02:25:17;;;;;;;30.38;5.45;;;5.50;99.90;;;;;;5131587;27;20039;-80
2022/11/26 02:28:07;;;;;;;31.02;5.10;;;5.60;99.90;;;;;;5130727;27;20039;-78
2022/11/26 02:30:37;;;;;;;27.13;4.72;;;5.50;99.90;;;;;;5129946;27;20538;-78
2022/11/26 02:33:12;;;;;;;28.70;4.28;;;5.50;99.90;;;;;;5131838;27;20571;-79
2022/11/26 02:35:56;;;;;;;27.65;4.63;;;5.60;99.90;;;;;;5113702;27;20424;-78
2022/11/26 02:38:29;;;;;;;27.13;6.00;;;5.50;99.90;;;;;;5130610;27;20065;-78
2022/11/26 02:40:55;;;;;;;21.08;4.90;;;5.50;99.90;;;;;;5130833;27;20127;-78
2022/11/26 02:43:22;;;;;;;27.73;4.32;;;5.50;99.90;;;;;;5130236;27;20050;-78
2022/11/26 02:45:52;;;;;;;20.52;4.53;;;5.70;99.90;;;;;;5114161;27;20152;-79
2022/11/26 02:48:22;;;;;;;17.20;5.15;;;5.50;99.90;;;;;;5128741;27;20090;-79
2022/11/26 02:50:56;;;;;;;22.48;4.10;;;5.50;99.90;;;;;;5131416;27;20504;-78
2022/11/26 02:53:24;;;;;;;36.38;7.05;;;5.50;99.90;;;;;;5113561;27;20373;-78
2022/11/26 02:56:01;;;;;;;29.25;4.70;;;5.50;99.90;;;;;;5130394;27;20088;-78
2022/11/26 02:58:27;;;;;;;16.95;5.43;;;5.50;99.90;;;;;;5130938;27;20046;-79
2022/11/26 03:00:55;;;;;;;18.83;6.13;;;5.50;99.90;;;;;;5129856;27;20050;-79
2022/11/26 03:03:25;;;;;;;26.92;6.47;;;5.50;99.90;;;;;;5131064;27;20038;-79
2022/11/26 03:05:58;;;;;;;21.65;6.22;;;5.50;99.90;;;;;;5112336;27;20092;-79
2022/11/26 03:08:25;;;;;;;22.05;4.82;;;6.70;99.90;;;;;;5130420;27;20493;-79
2022/11/26 03:10:51;;;;;;;15.40;5.07;;;5.50;99.90;;;;;;5113636;27;20509;-79
2022/11/26 03:13:17;;;;;;;23.30;6.22;;;5.50;99.90;;;;;;5112267;27;20088;-79
2022/11/26 03:15:43;;;;;;;29.00;6.88;;;5.60;99.90;;;;;;5130412;27;20558;-79
2022/11/26 03:18:09;;;;;;;25.55;5.97;;;5.50;99.90;;;;;;5111940;27;20038;-79
2022/11/26 03:20:34;;;;;;;32.03;6.32;;;5.50;99.90;;;;;;5113576;27;20039;-78
2022/11/26 03:23:00;;;;;;;27.23;7.30;;;5.60;99.90;;;;;;5128721;27;20125;-78
2022/11/26 03:25:26;;;;;;;40.70;6.82;;;6.30;99.90;;;;;;5113182;27;20125;-79
2022/11/26 03:27:52;;;;;;;27.88;6.28;;;5.60;99.90;;;;;;5130759;27;20042;-79
2022/11/26 03:30:17;;;;;;;28.35;5.55;;;6.70;99.90;;;;;;5111520;27;20059;-79
2022/11/26 03:32:43;;;;;;;24.50;5.75;;;5.60;99.90;;;;;;5096004;27;20441;-80
2022/11/26 03:35:09;;;;;;;24.25;6.13;;;5.50;99.90;;;;;;5128751;27;20046;-80
2022/11/26 03:37:35;;;;;;;24.42;6.22;;;5.50;99.90;;;;;;5113156;27;20047;-80
2022/11/26 03:40:00;;;;;;;28.35;6.45;;;5.60;99.90;;;;;;5111433;27;20050;-79
2022/11/26 03:42:26;;;;;;;22.13;6.70;;;5.50;99.90;;;;;;5129815;27;20039;-80
2022/11/26 03:44:52;;;;;;;25.05;6.00;;;5.50;99.90;;;;;;5129852;27;20050;-80
2022/11/26 03:47:18;;;;;;;22.52;5.80;;;5.50;99.90;;;;;;5111993;27;20477;-80
2022/11/26 03:49:43;;;;;;;24.17;5.82;;;5.50;99.90;;;;;;5112600;27;20049;-80
2022/11/26 03:52:09;;;;;;;30.58;6.20;;;6.30;99.90;;;;;;5094835;27;20042;-80
2022/11/26 03:54:35;;;;;;;19.13;5.20;;;6.30;99.90;;;;;;5112789;27;20049;-80
2022/11/26 03:57:00;;;;;;;26.85;5.68;;;6.40;99.90;;;;;;5128109;27;20065;-79
2022/11/26 03:59:26;;;;;;;16.52;5.00;;;5.40;99.90;;;;;;5096380;27;20126;-80
2022/11/26 04:01:52;;;;;;;39.92;6.35;;;5.40;99.90;;;;;;5110580;27;20499;-80
2022/11/26 04:04:17;;;;;;;15.02;5.32;;;5.40;99.90;;;;;;5077926;27;20095;-80
2022/11/26 04:06:43;;;;;;;25.27;6.60;;;5.40;99.90;;;;;;5079242;27;20058;-80
2022/11/26 04:09:09;;;;;;;25.48;6.45;;;5.40;99.90;;;;;;5093593;27;20046;-80
2022/11/26 04:11:34;;;;;;;21.70;6.07;;;5.40;99.90;;;;;;5112990;27;20130;-80
2022/11/26 04:14:00;;;;;;;39.63;6.50;;;5.40;99.90;;;;;;5127755;27;20043;-79
2022/11/26 04:16:26;;;;;;;25.85;5.93;;;5.40;99.90;;;;;;5095893;27;20045;-80
2022/11/26 04:18:51;;;;;;;20.20;5.70;;;5.40;99.90;;;;;;5111526;27;20038;-80
2022/11/26 04:21:17;;;;;;;21.10;5.80;;;5.40;99.90;;;;;;5129028;27;20038;-79
2022/11/26 04:23:43;;;;;;;28.17;8.15;;;5.40;99.90;;;;;;5112491;27;20046;-80
2022/11/26 04:26:08;;;;;;;25.13;6.65;;;5.40;99.90;;;;;;5076830;27;20042;-80
2022/11/26 04:28:34;;;;;;;16.17;6.13;;;6.10;99.90;;;;;;5112128;27;20794;-80
2022/11/26 04:31:00;;;;;;;22.17;5.88;;;5.30;99.90;;;;;;5127521;27;20082;-80
2022/11/26 04:33:28;;;;;;;18.05;5.13;;;5.30;99.90;;;;;;5112225;27;20039;-80
2022/11/26 04:35:54;;;;;;;24.40;5.97;;;6.00;99.90;;;;;;5111923;27;20415;-79
2022/11/26 04:38:20;;;;;;;29.88;6.50;;;5.30;99.90;;;;;;5111699;27;20108;-80
2022/11/26 04:40:46;;;;;;;31.92;6.72;;;5.30;99.90;;;;;;5128271;27;20393;-80
2022/11/26 04:43:12;;;;;;;26.23;7.15;;;5.30;99.90;;;;;;5127380;27;20046;-80
2022/11/26 04:45:38;;;;;;;23.02;5.68;;;5.70;99.90;;;;;;5128740;27;20114;-80
2022/11/26 04:48:04;;;;;;;34.72;5.93;;;5.50;99.90;;;;;;5127163;27;20049;-79
2022/11/26 04:50:30;;;;;;;26.45;5.68;;;5.30;99.90;;;;;;5112372;27;20053;-80
2022/11/26 04:52:56;;;;;;;29.50;6.93;;;5.90;99.90;;;;;;5110206;27;20070;-80
2022/11/26 04:55:22;;;;;;;26.30;7.05;;;5.40;99.90;;;;;;5128868;27;20081;-79
2022/11/26 04:57:47;;;;;;;42.33;6.10;;;5.90;99.90;;;;;;5111259;27;20046;-79
2022/11/26 05:00:15;;;;;;;35.63;7.60;;;5.30;99.90;;;;;;5110385;27;20043;-79
2022/11/26 05:02:41;;;;;;;24.05;6.10;;;5.30;99.90;;;;;;5128938;27;20070;-79
2022/11/26 05:05:07;;;;;;;32.88;5.95;;;5.30;99.90;;;;;;5127877;27;20081;-80
2022/11/26 05:07:33;;;;;;;24.30;6.10;;;5.30;99.90;;;;;;5112108;27;20041;-79
2022/11/26 05:09:59;;;;;;;29.35;7.05;;;5.30;99.90;;;;;;5126635;27;20521;-79
2022/11/26 05:12:25;;;;;;;22.13;6.93;;;6.30;99.90;;;;;;5128347;27;20042;-80
2022/11/26 05:14:51;;;;;;;30.63;7.10;;;5.30;99.90;;;;;;5127438;27;20476;-80
2022/11/26 05:17:16;;;;;;;33.20;8.60;;;5.30;99.90;;;;;;5093946;27;20038;-80
2022/11/26 05:19:42;;;;;;;21.27;6.55;;;6.30;99.90;;;;;;5128384;27;20167;-79
2022/11/26 05:22:08;;;;;;;39.40;7.20;;;5.30;99.90;;;;;;5127023;27;20050;-80
2022/11/26 05:24:34;;;;;;;33.78;7.65;;;5.30;99.90;;;;;;5111016;27;20229;-80
2022/11/26 05:26:59;;;;;;;20.45;6.50;;;5.30;99.90;;;;;;5092645;27;20049;-80
2022/11/26 05:29:25;;;;;;;35.55;7.07;;;6.50;99.90;;;;;;5094859;27;20047;-79
2022/11/26 05:31:51;;;;;;;20.02;6.15;;;5.30;99.90;;;;;;5093483;27;20042;-79
2022/11/26 05:34:18;;;;;;;29.33;7.63;;;5.40;99.90;;;;;;5128169;27;20077;-79
2022/11/26 05:36:43;;;;;;;25.35;6.50;;;5.40;99.90;;;;;;5110820;27;20046;-79
2022/11/26 05:39:09;;;;;;;29.90;8.10;;;5.40;99.90;;;;;;5106090;28;20043;-79
2022/11/26 05:41:35;;;;;;;26.65;7.18;;;5.40;99.90;;;;;;5107310;28;20452;-80
2022/11/26 05:44:01;;;;;;;38.03;8.00;;;6.60;99.90;;;;;;5123032;28;20055;-79
2022/11/26 05:46:26;;;;;;;29.60;6.82;;;5.40;99.90;;;;;;5091883;28;20039;-78
2022/11/26 05:48:52;;;;;;;32.33;7.50;;;5.50;99.90;;;;;;5123780;28;20468;-78
2022/11/26 05:51:18;;;;;;;26.98;6.97;;;5.50;99.90;;;;;;5107364;28;20426;-78
2022/11/26 05:53:43;;;;;;;30.30;6.20;;;5.50;99.90;;;;;;5090570;28;20130;-78
2022/11/26 05:56:09;;;;;;;27.38;7.97;;;5.50;99.90;;;;;;5107057;28;20043;-78
2022/11/26 05:58:35;;;;;;;30.83;6.68;;;5.50;99.90;;;;;;5090281;28;20068;-79
2022/11/26 06:01:06;;;;;;;22.08;7.00;;;5.50;99.90;;;;;;5089322;28;20077;-78
2022/11/26 06:03:32;;;;;;;24.63;7.15;;;5.50;99.90;;;;;;5125252;28;20043;-79
2022/11/26 06:05:58;;;;;;;26.88;6.10;;;5.50;99.90;;;;;;5089588;28;20052;-79
2022/11/26 06:08:23;;;;;;;23.55;7.00;;;5.50;99.90;;;;;;5107533;28;20046;-79
2022/11/26 06:10:49;;;;;;;22.95;6.90;;;6.40;99.90;;;;;;5123399;28;20042;-79
2022/11/26 06:13:15;;;;;;;30.48;6.32;;;5.50;99.90;;;;;;5106333;28;20075;-79
2022/11/26 06:15:41;;;;;;;25.95;7.03;;;5.50;99.90;;;;;;5090153;28;20092;-79
2022/11/26 06:18:06;;;;;;;28.25;7.70;;;5.50;99.90;;;;;;5123500;28;20122;-78
2022/11/26 06:20:32;;;;;;;29.10;7.40;;;5.50;99.90;;;;;;5124354;28;20574;-79
2022/11/26 06:22:58;;;;;;;27.42;7.43;;;5.40;99.90;;;;;;5105841;27;20058;-79
2022/11/26 06:25:23;;;;;;;20.23;6.90;;;5.40;99.90;;;;;;5110490;27;20131;-79
2022/11/26 06:27:51;;;;;;;30.13;7.05;;;5.40;99.90;;;;;;5126810;27;20046;-79
2022/11/26 06:30:17;;;;;;;27.30;7.63;;;5.40;99.90;;;;;;5110171;27;20133;-79
2022/11/26 06:32:43;;;;;;;25.98;7.93;;;5.40;99.90;;;;;;5110695;27;20077;-79
2022/11/26 06:35:09;;;;;;;35.47;7.32;;;5.40;99.90;;;;;;5126635;27;20504;-78
2022/11/26 06:37:35;;;;;;;35.08;9.57;;;5.40;99.90;;;;;;5110409;27;20054;-79
2022/11/26 06:40:00;;;;;;;25.85;6.95;;;6.20;99.90;;;;;;5109353;27;20130;-79
2022/11/26 06:42:26;;;;;;;33.35;7.60;;;5.30;99.90;;;;;;5111324;27;20043;-79
2022/11/26 06:44:52;;;;;;;28.27;6.65;;;5.40;99.90;;;;;;5126633;27;20041;-79
2022/11/26 06:47:17;;;;;;;23.60;7.47;;;5.40;99.90;;;;;;5127404;27;20077;-79
2022/11/26 06:49:43;;;;;;;24.02;6.43;;;5.40;99.90;;;;;;5126920;27;20051;-79
2022/11/26 06:52:09;;;;;;;34.47;9.52;;;5.40;99.90;;;;;;5093417;27;20138;-79
2022/11/26 06:54:34;;;;;;;17.15;6.32;;;5.40;99.90;;;;;;5093202;27;20039;-80
2022/11/26 06:57:00;;;;;;;28.73;6.93;;;5.80;99.90;;;;;;5092295;27;20569;-80
2022/11/26 06:59:26;;;;;;;23.05;6.60;;;6.30;99.90;;;;;;5127495;27;20035;-80
2022/11/26 07:01:51;;;;;;;22.88;6.90;;;5.40;99.90;;;;;;5126090;27;20077;-79
2022/11/26 07:04:17;;;;;;;34.65;8.13;;;6.60;99.90;;;;;;5126855;27;20043;-79
2022/11/26 07:06:44;;;;;;;24.63;8.13;;;5.40;99.90;;;;;;5109824;27;20062;-79
2022/11/26 07:09:11;;;;;;;32.53;8.02;;;5.40;99.90;;;;;;5126704;27;20035;-79
2022/11/26 07:11:38;;;;;;;37.92;7.18;;;5.40;99.90;;;;;;5126502;27;20430;-79
2022/11/26 07:14:05;;;;;;;29.17;7.78;;;5.50;99.90;;;;;;5127538;27;20050;-79
2022/11/26 07:16:30;;;;;;;18.77;7.97;;;5.50;99.90;;;;;;5127317;27;20137;-79
2022/11/26 07:18:57;;;;;;;32.35;7.45;;;5.50;99.90;;;;;;5126273;27;20122;-80
2022/11/26 07:21:24;;;;;;;28.20;8.05;;;5.50;99.90;;;;;;5127343;27;20062;-79
2022/11/26 07:23:50;;;;;;;23.83;7.18;;;5.50;99.90;;;;;;5126965;27;20375;-80
2022/11/26 07:26:18;;;;;;;22.77;7.88;;;5.50;99.90;;;;;;5126439;27;20045;-79
2022/11/26 07:28:46;;;;;;;32.50;8.45;;;5.50;99.90;;;;;;5126565;27;20043;-80
2022/11/26 07:31:14;;;;;;;23.63;7.50;;;5.50;99.90;;;;;;5108676;27;20049;-79
2022/11/26 07:33:40;;;;;;;26.38;7.65;;;5.50;99.90;;;;;;5127319;27;20047;-80
2022/11/26 07:36:09;;;;;;;27.38;7.75;;;5.60;99.90;;;;;;5125294;27;20049;-80
2022/11/26 07:38:35;;;;;;;27.20;7.80;;;5.50;99.90;;;;;;5127085;27;20051;-79
2022/11/26 07:41:09;;;;;;;19.15;8.15;;;5.50;99.90;;;;;;5108985;27;20379;-80
2022/11/26 07:43:36;;;;;;;35.67;9.48;;;5.60;99.90;;;;;;5108518;27;20047;-79
2022/11/26 07:46:04;;;;;;;26.02;7.22;;;5.60;99.90;;;;;;5109309;27;20023;-79
2022/11/26 07:48:31;;;;;;;26.02;9.30;;;5.70;99.90;;;;;;5125725;27;20448;-79
2022/11/26 07:50:58;;;;;;;32.05;7.88;;;6.20;99.90;;;;;;5127241;27;20524;-79
2022/11/26 07:53:27;;;;;;;27.40;8.00;;;5.70;99.90;;;;;;5126156;27;20439;-78
2022/11/26 07:55:53;;;;;;;24.85;8.18;;;5.80;99.90;;;;;;5126487;27;20046;-79
2022/11/26 07:58:19;;;;;;;29.92;8.88;;;5.80;99.90;;;;;;5091589;27;20047;-81
2022/11/26 08:00:44;;;;;;;28.27;8.02;;;6.30;99.90;;;;;;5108761;27;20035;-79
2022/11/26 08:03:10;;;;;;;31.35;8.55;;;5.90;99.90;;;;;;5126449;27;20035;-79
2022/11/26 08:05:40;;;;;;;27.20;7.50;;;5.90;99.90;;;;;;5125178;27;20122;-79
2022/11/26 08:08:06;;;;;;;22.08;9.00;;;5.90;99.90;;;;;;5126519;27;20053;-79
2022/11/26 08:10:32;;;;;;;23.40;7.75;;;5.90;99.90;;;;;;5090887;27;20036;-79
2022/11/26 08:12:57;;;;;;;22.20;7.97;;;5.90;99.90;;;;;;5126375;27;20086;-80
2022/11/26 08:15:23;;;;;;;38.63;10.27;;;5.90;99.90;;;;;;5125998;27;20069;-79
2022/11/26 08:17:52;;;;;;;22.55;8.02;;;5.90;99.90;;;;;;5127085;27;20043;-79
2022/11/26 08:20:18;;;;;;;22.50;9.48;;;5.90;99.90;;;;;;5126187;27;20051;-79
2022/11/26 08:22:44;;;;;;;35.55;8.95;;;5.90;99.90;;;;;;5124956;27;20448;-80
2022/11/26 08:25:10;;;;;;;28.25;7.93;;;5.90;99.90;;;;;;5127820;27;20049;-81
2022/11/26 08:27:35;;;;;;;24.77;7.85;;;5.90;99.90;;;;;;5125077;27;20085;-80
2022/11/26 08:30:01;;;;;;;22.75;7.93;;;5.90;99.90;;;;;;5125835;27;20409;-78
2022/11/26 08:32:26;;;;;;;32.55;8.25;;;6.70;99.90;;;;;;5108409;27;20042;-78
2022/11/26 08:34:52;;;;;;;33.70;9.60;;;6.00;99.90;;;;;;5125426;27;20043;-78
2022/11/26 08:37:18;;;;;;;23.38;7.85;;;5.90;99.90;;;;;;5127092;27;20054;-78
2022/11/26 08:39:43;;;;;;;25.50;7.53;;;6.00;99.90;;;;;;5128513;27;20065;-79
2022/11/26 08:42:09;;;;;;;29.63;7.80;;;6.70;99.90;;;;;;5129184;27;20042;-79
2022/11/26 08:44:35;;;;;;;27.50;8.20;;;6.00;99.90;;;;;;5127678;27;20093;-79
2022/11/26 08:47:00;;;;;;;26.75;7.60;;;6.00;99.90;;;;;;5129250;27;20386;-79
2022/11/26 08:49:26;;;;;;;24.52;8.10;;;6.10;99.90;;;;;;5111173;27;20035;-79
2022/11/26 08:51:54;;;;;;;26.35;8.48;;;6.10;99.90;;;;;;5128466;27;20401;-79
2022/11/26 08:54:20;;;;;;;34.55;7.60;;;6.50;99.90;;;;;;5147503;27;20078;-79
2022/11/26 08:56:46;;;;;;;22.52;7.93;;;6.30;99.90;;;;;;5146589;27;20127;-79
2022/11/26 08:59:11;;;;;;;38.92;8.57;;;6.30;99.90;;;;;;5129430;27;20099;-79
2022/11/26 09:01:37;;;;;;;28.48;6.93;;;6.30;99.90;;;;;;5127373;27;20137;-79
2022/11/26 09:04:03;;;;;;;21.35;6.97;;;6.40;99.90;;;;;;5129106;27;20037;-79
2022/11/26 09:06:31;;;;;;;21.00;8.05;;;6.40;99.90;;;;;;5094260;27;20381;-80
2022/11/26 09:09:16;;;;;;;27.83;7.10;;;6.50;99.90;;;;;;5128524;27;20485;-80
2022/11/26 09:12:08;;;;;;;18.88;7.25;;;6.50;99.90;;;;;;5111674;27;20125;-80
2022/11/26 09:14:37;;;;;;;23.75;6.03;;;6.60;99.90;;;;;;5123459;27;20059;-80
2022/11/26 09:17:04;;;;;;;25.38;7.70;;;6.60;99.90;;;;;;5111438;27;20031;-80
2022/11/26 09:19:29;;;;;;;21.90;6.97;;;6.70;99.90;;;;;;5128426;27;20440;-80
2022/11/26 09:21:55;;;;;;;21.58;7.18;;;6.70;99.90;;;;;;5110596;27;20035;-80
2022/11/26 09:24:21;;;;;;;31.35;7.47;;;6.80;99.90;;;;;;5111235;27;20042;-80
2022/11/26 09:26:47;;;;;;;18.90;6.35;;;6.90;99.90;;;;;;5110389;27;20069;-80
2022/11/26 09:29:16;;;;;;;24.83;7.97;;;6.90;99.90;;;;;;5128585;27;20046;-80
2022/11/26 09:31:46;;;;;;;27.65;6.63;;;8.00;99.90;;;;;;5127249;27;20038;-80
2022/11/26 09:34:12;;;;;;;22.83;6.88;;;7.00;99.90;;;;;;5111407;27;20049;-80
2022/11/26 09:36:38;;;;;;;28.70;7.80;;;7.10;99.90;;;;;;5110941;27;20507;-80
2022/11/26 09:39:04;;;;;;;24.95;6.13;;;7.10;99.90;;;;;;5127302;27;20047;-80
2022/11/26 09:41:42;;;;;;;25.17;6.75;;;7.10;99.90;;;;;;5110627;27;20125;-80
2022/11/26 09:44:23;;;;;;;28.60;6.63;;;7.20;99.90;;;;;;5110138;27;20046;-80
2022/11/26 09:46:57;;;;;;;26.75;6.15;;;7.20;99.90;;;;;;5128530;27;20061;-80
2022/11/26 09:49:24;;;;;;;22.50;6.90;;;7.30;99.90;;;;;;5110502;27;20039;-80
2022/11/26 09:51:54;;;;;;;22.65;7.13;;;7.30;99.90;;;;;;5127602;27;20050;-80
2022/11/26 09:54:23;;;;;;;23.85;6.60;;;7.30;99.90;;;;;;5127668;27;20039;-80
2022/11/26 09:56:55;;;;;;;20.05;5.63;;;7.30;99.90;;;;;;5110240;27;20512;-80
2022/11/26 09:59:21;;;;;;;21.75;6.57;;;7.40;99.90;;;;;;5131972;27;20074;-79
2022/11/26 10:01:47;;;;;;;19.75;5.93;;;8.00;99.90;;;;;;5114234;27;20083;-79
2022/11/26 10:04:23;;;;;;;23.42;6.57;;;8.00;99.90;;;;;;5115110;27;20111;-79
2022/11/26 10:07:08;;;;;;;22.30;7.32;;;7.60;99.90;;;;;;5114158;27;20050;-79
2022/11/26 10:09:39;;;;;;;22.05;6.03;;;7.60;99.90;;;;;;5130987;27;20074;-79
2022/11/26 10:12:25;;;;;;;29.75;6.40;;;7.70;99.90;;;;;;5132152;27;20499;-79
2022/11/26 10:15:09;;;;;;;22.38;6.35;;;7.70;99.90;;;;;;5113583;27;20043;-79
2022/11/26 10:17:57;;;;;;;28.70;6.53;;;7.80;99.90;;;;;;5114416;27;20069;-79
2022/11/26 10:20:23;;;;;;;28.10;6.75;;;7.80;99.90;;;;;;5114156;27;20039;-80
2022/11/26 10:22:58;;;;;;;19.63;6.43;;;7.80;99.90;;;;;;5130115;27;20049;-80
2022/11/26 10:25:28;;;;;;;19.25;5.90;;;7.80;99.90;;;;;;5131540;27;20081;-80
2022/11/26 10:27:56;;;;;;;19.05;6.75;;;7.80;99.90;;;;;;5113417;27;20048;-79
2022/11/26 10:30:25;;;;;;;28.52;8.60;;;7.90;99.90;;;;;;5130484;27;20045;-80
2022/11/26 10:32:52;;;;;;;35.40;7.28;;;7.80;99.90;;;;;;5130635;27;20566;-81
2022/11/26 10:35:21;;;;;;;23.17;7.35;;;7.80;99.90;;;;;;5113041;27;20090;-81
2022/11/26 10:37:47;;;;;;;22.92;6.15;;;8.40;99.90;;;;;;5113569;27;20071;-81
2022/11/26 10:40:23;;;;;;;25.58;7.82;;;8.90;99.90;;;;;;5130231;27;20042;-80
2022/11/26 10:43:09;;;;;;;18.38;6.68;;;7.90;99.90;;;;;;5130962;27;20050;-81
2022/11/26 10:45:48;;;;;;;29.67;8.20;;;8.00;99.90;;;;;;5130020;27;20047;-80
2022/11/26 10:48:25;;;;;;;17.92;6.57;;;8.00;99.90;;;;;;5112516;27;20042;-80
2022/11/26 10:51:08;;;;;;;20.42;6.20;;;8.10;99.90;;;;;;5113991;27;20046;-80
2022/11/26 10:53:55;;;;;;;22.70;7.25;;;8.10;99.90;;;;;;5112481;27;20039;-82
2022/11/26 10:56:27;;;;;;;16.67;6.85;;;8.20;99.90;;;;;;5129968;27;20034;-79
2022/11/26 10:58:59;;;;;;;24.53;7.03;;;8.20;99.90;;;;;;5113587;27;20050;-79
2022/11/26 11:01:33;;;;;;;21.20;7.07;;;8.20;99.90;;;;;;5130316;27;20154;-80
2022/11/26 11:03:59;;;;;;;25.30;8.13;;;8.40;99.90;;;;;;5131567;27;20038;-78
2022/11/26 11:06:34;;;;;;;21.45;7.03;;;8.30;99.90;;;;;;5113488;27;20380;-79
2022/11/26 11:08:59;;;;;;;28.38;8.02;;;8.40;99.90;;;;;;5130407;27;20513;-79
2022/11/26 11:11:28;;;;;;;21.95;7.43;;;8.40;99.90;;;;;;5112694;27;20074;-80
2022/11/26 11:13:54;;;;;;;28.00;8.45;;;8.70;99.90;;;;;;5112748;27;20034;-79
2022/11/26 11:16:31;;;;;;;24.42;7.43;;;8.50;99.90;;;;;;5113221;27;20133;-79
2022/11/26 11:19:02;;;;;;;30.60;8.48;;;8.60;99.90;;;;;;5130298;27;20051;-79
2022/11/26 11:21:34;;;;;;;26.60;7.60;;;8.60;99.90;;;;;;5113934;27;20097;-78
2022/11/26 11:24:07;;;;;;;28.73;8.23;;;8.60;99.90;;;;;;5112850;27;20042;-78
2022/11/26 11:26:44;;;;;;;25.30;7.82;;;8.70;99.90;;;;;;5129812;27;20493;-79
2022/11/26 11:29:39;;;;;;;27.13;7.45;;;8.70;99.90;;;;;;5130753;27;20039;-79
2022/11/26 11:32:26;;;;;;;25.23;6.90;;;8.70;99.90;;;;;;5074563;27;20398;-78
2022/11/26 11:34:51;;;;;;;23.45;8.50;;;8.80;99.90;;;;;;5112868;27;20455;-79
2022/11/26 11:37:22;;;;;;;24.95;7.80;;;8.80;99.90;;;;;;5129756;27;20134;-79
2022/11/26 11:40:12;;;;;;;29.63;8.85;;;8.90;99.90;;;;;;5129779;27;20382;-78
2022/11/26 11:42:39;;;;;;;29.92;9.48;;;8.90;99.90;;;;;;5129671;27;20042;-82
2022/11/26 11:45:21;;;;;;;22.40;7.93;;;8.90;99.90;;;;;;5112574;27;20402;-79
2022/11/26 11:47:55;;;;;;;29.20;7.15;;;8.90;99.90;;;;;;5129900;27;20439;-79
2022/11/26 11:50:36;;;;;;;30.92;7.43;;;9.00;99.90;;;;;;5096298;27;20061;-79
2022/11/26 11:53:33;;;;;;;27.02;7.63;;;9.00;99.90;;;;;;5129015;27;20043;-82
2022/11/26 11:56:08;;;;;;;37.10;7.95;;;9.00;99.90;;;;;;5112387;27;20038;-80
2022/11/26 11:59:15;;;;;;;29.65;8.15;;;9.00;99.90;;;;;;5128913;27;20047;-81
2022/11/26 12:01:44;;;;;;;29.60;8.20;;;9.90;99.90;;;;;;5115453;27;20501;-81
2022/11/26 12:04:40;;;;;;;27.30;8.55;;;9.00;99.90;;;;;;5113008;27;20064;-78
2022/11/26 12:07:34;;;;;;;32.17;7.88;;;9.00;99.90;;;;;;5128762;27;20187;-84
2022/11/26 12:10:17;;;;;;;;;;;9.00;99.90;;;;;;5128839;27;20042;-78
2022/11/26 12:12:55;;;;;;;24.85;7.13;;;9.00;99.90;;;;;;5112877;27;19918;-78
2022/11/26 12:15:27;;;;;;;27.88;8.45;;;9.00;99.90;;;;;;5111388;27;20043;-78
2022/11/26 12:18:18;;;;;;;26.45;8.40;;;9.00;99.90;;;;;;5129484;27;20100;-79
2022/11/26 12:20:53;;;;;;;30.55;8.57;;;9.00;99.90;;;;;;5129200;27;20042;-79
2022/11/26 12:23:22;;;;;;;25.27;8.75;;;9.00;99.90;;;;;;5111003;27;20459;-79
2022/11/26 12:25:52;;;;;;;23.33;7.82;;;9.00;99.90;;;;;;5129461;27;20115;-79
2022/11/26 12:28:26;;;;;;;32.65;8.07;;;9.00;99.90;;;;;;5128197;27;20513;-79
2022/11/26 12:31:16;;;;;;;25.00;7.13;;;9.10;99.90;;;;;;5111422;27;20086;-78
2022/11/26 12:33:48;;;;;;;24.50;7.50;;;9.60;99.90;;;;;;5111981;27;20047;-79
2022/11/26 12:36:53;;;;;;;25.00;6.30;;;9.10;99.90;;;;;;5128236;27;20382;-78
2022/11/26 12:39:39;;;;;;;31.77;8.57;;;9.10;99.90;;;;;;5111419;27;20062;-78
2022/11/26 12:42:14;;;;;;;27.40;7.80;;;9.10;99.90;;;;;;5128956;27;20860;-78
2022/11/26 12:44:42;;;;;;;29.42;8.02;;;9.10;99.90;;;;;;5127860;27;20042;-78
2022/11/26 12:47:10;;;;;;;27.10;7.70;;;9.10;99.90;;;;;;5111444;27;20038;-79
2022/11/26 12:49:51;;;;;;;27.58;7.97;;;9.10;99.90;;;;;;5127709;27;20049;-80
2022/11/26 12:52:57;;;;;;;25.67;7.38;;;9.10;99.90;;;;;;5128047;27;20158;-79
2022/11/26 12:56:13;;;;;;;26.25;9.30;;;9.10;99.90;;;;;;5106764;27;20058;-79
2022/11/26 12:58:54;;;;;;;22.55;8.95;;;9.10;99.90;;;;;;5025374;28;20049;-81
2022/11/26 13:01:22;;;;;;;24.08;8.82;;;9.10;99.90;;;;;;5008979;28;20055;-80
2022/11/26 13:03:49;;;;;;;26.65;8.52;;;9.40;99.90;;;;;;5094310;27;20104;-81